Time;durP1;ratioP1;P1;durP2;ratioP2;P2;SDS_P1;SDS_P2;PMS_P1;PMS_P2;Temp;Humidity;BMP_temperature;BMP_pressure;BME280_temperature;BME280_humidity;BME280_pressure;Samples;Min_cycle;Max_cycle;Signal;HPM_P1;HPM_P2
2023/01/09 00:00:40;;;;;;;74.65;34.90;;;;;;;2.71;98.73;99480.19;1829748;78;25525;-48
2023/01/09 00:03:08;;;;;;;69.58;35.17;;;;;;;2.70;98.79;99469.23;1829831;77;25399;-51
2023/01/09 00:05:34;;;;;;;67.35;33.70;;;;;;;2.70;98.87;99465.22;1829802;78;25589;-49
2023/01/09 00:08:00;;;;;;;81.15;36.63;;;;;;;2.70;98.85;99455.33;1829738;78;27480;-50
2023/01/09 00:10:27;;;;;;;66.67;33.67;;;;;;;2.70;99.00;99457.21;1829681;77;25747;-47
2023/01/09 00:12:53;;;;;;;72.10;34.83;;;;;;;2.70;98.95;99455.33;1829783;77;25599;-49
2023/01/09 00:15:19;;;;;;;66.12;33.38;;;;;;;2.71;99.05;99439.58;1829750;78;25597;-49
2023/01/09 00:17:46;;;;;;;78.12;36.93;;;;;;;2.70;98.95;99430.50;1829782;78;25548;-52
2023/01/09 00:20:13;;;;;;;65.83;34.05;;;;;;;2.71;98.96;99427.56;1829840;77;27593;-48
2023/01/09 00:22:40;;;;;;;67.53;34.05;;;;;;;2.72;99.17;99430.47;1813641;78;25601;-50
2023/01/09 00:25:08;;;;;;;66.40;33.95;;;;;;;2.72;99.09;99429.14;1813711;78;25417;-49
2023/01/09 00:27:35;;;;;;;71.80;34.38;;;;;;;2.73;99.03;99420.61;1813728;78;27006;-50
2023/01/09 00:30:04;;;;;;;72.20;35.08;;;;;;;2.74;99.06;99424.86;1829823;77;25574;-50
2023/01/09 00:32:32;;;;;;;67.75;34.13;;;;;;;2.73;99.05;99421.40;1829969;77;27475;-50
2023/01/09 00:34:58;;;;;;;70.20;34.25;;;;;;;2.73;99.05;99415.27;1813606;78;26720;-51
2023/01/09 00:37:25;;;;;;;69.65;36.38;;;;;;;2.74;99.11;99415.52;1813543;78;25458;-49
2023/01/09 00:39:51;;;;;;;66.95;34.53;;;;;;;2.73;99.20;99428.08;1829685;77;25590;-50
2023/01/09 00:42:22;;;;;;;68.25;33.67;;;;;;;2.74;99.23;99434.20;1829826;77;25479;-49
2023/01/09 00:44:57;;;;;;;70.00;33.02;;;;;;;2.75;99.19;99443.83;1829827;78;27510;-49
2023/01/09 00:47:32;;;;;;;64.80;33.75;;;;;;;2.73;99.28;99434.75;1829691;77;25714;-50
2023/01/09 00:50:03;;;;;;;67.72;34.27;;;;;;;2.74;99.23;99427.53;1829823;78;25642;-50
2023/01/09 00:52:33;;;;;;;63.23;33.23;;;;;;;2.73;99.30;99430.75;1829673;77;25516;-50
2023/01/09 00:55:00;;;;;;;73.78;35.50;;;;;;;2.74;99.11;99431.53;1829805;78;25453;-49
2023/01/09 00:57:27;;;;;;;68.85;35.25;;;;;;;2.75;99.17;99421.13;1829800;77;27593;-52
2023/01/09 00:59:53;;;;;;;69.22;32.67;;;;;;;2.76;99.22;99422.19;1829607;77;25525;-48
2023/01/09 01:02:20;;;;;;;63.23;33.33;;;;;;;2.75;99.18;99427.80;1829709;78;25384;-51
2023/01/09 01:07:38;;;;;;;63.40;33.08;;;;;;;2.74;99.14;99419.52;1734439;82;25537;-48
2023/01/09 01:10:10;;;;;;;66.12;35.10;;;;;;;2.75;99.16;99405.89;1734530;82;27673;-48
2023/01/09 01:12:38;;;;;;;61.70;32.63;;;;;;;2.76;99.15;99402.70;1732636;80;25522;-47
2023/01/09 01:15:06;;;;;;;66.22;33.78;;;;;;;2.75;99.16;99401.09;1709831;82;25650;-48
2023/01/09 01:17:36;;;;;;;64.37;32.03;;;;;;;2.74;99.19;99406.98;1734604;82;25651;-47
2023/01/09 01:20:06;;;;;;;64.32;32.13;;;;;;;2.74;99.04;99412.84;1734560;82;25518;-48
2023/01/09 01:22:34;;;;;;;66.70;33.85;;;;;;;2.74;99.13;99405.64;1734537;82;28062;-48
2023/01/09 01:25:00;;;;;;;67.70;33.98;;;;;;;2.72;99.12;99399.77;1709715;82;25826;-48
2023/01/09 01:27:28;;;;;;;59.60;31.77;;;;;;;2.75;99.16;99394.42;1734603;82;25459;-48
2023/01/09 01:29:55;;;;;;;60.85;32.45;;;;;;;2.76;99.25;99386.67;1709817;82;25667;-50
2023/01/09 01:32:23;;;;;;;59.88;34.08;;;;;;;2.76;99.13;99375.99;1734455;82;25623;-48
2023/01/09 01:34:49;;;;;;;63.20;34.13;;;;;;;2.76;99.21;99374.11;1734465;82;27515;-48
2023/01/09 01:37:17;;;;;;;61.53;32.55;;;;;;;2.75;99.15;99369.83;1734309;82;25551;-49
2023/01/09 01:39:43;;;;;;;62.33;32.08;;;;;;;2.75;99.16;99371.72;1734322;82;25502;-48
2023/01/09 01:42:12;;;;;;;60.50;32.00;;;;;;;2.76;99.16;99376.78;1734368;82;25501;-48
2023/01/09 01:45:11;;;;;;;63.38;34.35;;;;;;;2.78;99.22;99373.84;1800748;78;25644;-52
2023/01/09 01:48:03;;;;;;;58.60;31.50;;;;;;;2.79;99.18;99368.73;1829715;78;27463;-48
2023/01/09 01:50:36;;;;;;;60.58;32.08;;;;;;;2.79;99.13;99364.21;1829621;78;25787;-49
2023/01/09 01:53:26;;;;;;;59.48;31.10;;;;;;;2.79;99.04;99358.05;1829713;77;25447;-48
2023/01/09 01:56:31;;;;;;;55.73;29.23;;;;;;;2.78;99.13;99357.81;1813484;78;25668;-48
2023/01/09 01:59:15;;;;;;;59.70;31.70;;;;;;;2.78;99.07;99357.81;1783840;80;25456;-48
2023/01/09 02:01:45;;;;;;;61.20;31.42;;;;;;;2.77;99.07;99363.67;1783727;80;29856;-49
2023/01/09 02:04:12;;;;;;;62.17;32.88;;;;;;;2.77;99.12;99362.88;1783835;80;25609;-49
2023/01/09 02:06:41;;;;;;;59.80;32.33;;;;;;;2.78;99.16;99361.27;1783894;80;25509;-49
2023/01/09 02:09:08;;;;;;;60.52;30.25;;;;;;;2.79;99.14;99366.06;1783904;80;25683;-48
2023/01/09 02:11:34;;;;;;;62.08;32.33;;;;;;;2.79;99.14;99366.06;1740357;80;25475;-48
2023/01/09 02:14:02;;;;;;;57.43;31.87;;;;;;;2.79;99.28;99362.88;1783867;80;27544;-49
2023/01/09 02:17:02;;;;;;;59.73;32.55;;;;;;;2.82;99.20;99367.39;1783826;80;25893;-50
2023/01/09 02:20:11;;;;;;;59.38;31.70;;;;;;;2.83;99.23;99367.63;1783858;80;25476;-51
2023/01/09 02:23:18;;;;;;;55.75;29.95;;;;;;;2.83;99.26;99363.63;1782207;80;32765;-48
2023/01/09 02:26:11;;;;;;;55.63;29.57;;;;;;;2.82;99.25;99369.52;1783883;80;25467;-49
2023/01/09 02:29:17;;;;;;;55.75;30.23;;;;;;;2.83;99.36;99372.98;1783873;80;27527;-50
2023/01/09 02:31:49;;;;;;;56.13;31.68;;;;;;;2.85;99.41;99370.84;1783806;80;25550;-49
2023/01/09 02:34:59;;;;;;;54.25;29.42;;;;;;;2.85;99.43;99366.30;1826849;78;25655;-49
2023/01/09 02:37:48;;;;;;;55.85;29.65;;;;;;;2.86;99.40;99363.89;1829854;77;25433;-49
2023/01/09 02:40:28;;;;;;;54.07;30.13;;;;;;;2.87;99.46;99354.78;1829103;77;25443;-49
2023/01/09 02:42:58;;;;;;;56.20;30.72;;;;;;;2.84;99.39;99355.88;1818691;77;27515;-48
2023/01/09 02:45:24;;;;;;;53.35;28.90;;;;;;;2.89;99.33;99359.30;1829785;77;25439;-49
2023/01/09 02:47:51;;;;;;;53.20;30.27;;;;;;;2.90;99.22;99356.11;1787118;78;25554;-49
2023/01/09 02:50:32;;;;;;;54.88;30.02;;;;;;;2.90;99.13;99358.23;1829820;77;26157;-49
2023/01/09 02:53:38;;;;;;;52.38;29.57;;;;;;;2.90;99.06;99358.23;1822062;78;25605;-48
2023/01/09 02:56:54;;;;;;;52.93;28.05;;;;;;;2.90;98.92;99350.22;1829451;77;27492;-50
2023/01/09 02:59:35;;;;;;;51.88;27.62;;;;;;;2.90;98.78;99353.44;1829777;78;25405;-49
2023/01/09 03:02:34;;;;;;;50.38;28.15;;;;;;;2.87;98.62;99360.13;1829867;77;25379;-50
2023/01/09 03:05:16;;;;;;;;;;;;;;;2.85;98.56;99362.84;1832531;77;25826;-50
2023/01/09 03:08:10;;;;;;;49.30;26.55;;;;;;;2.84;98.63;99362.56;1829871;77;25379;-48
2023/01/09 03:10:59;;;;;;;54.48;27.75;;;;;;;2.83;98.72;99348.94;1828243;77;27481;-49
2023/01/09 03:13:31;;;;;;;51.37;28.30;;;;;;;2.82;98.76;99347.36;1829861;77;25499;-48
2023/01/09 03:16:02;;;;;;;52.33;27.48;;;;;;;2.83;98.83;99344.41;1829945;77;25440;-49
2023/01/09 03:18:31;;;;;;;50.85;27.90;;;;;;;2.82;98.71;99338.02;1829747;78;27732;-49
2023/01/09 03:20:58;;;;;;;51.28;28.02;;;;;;;2.82;98.70;99340.14;1829978;77;25613;-49
2023/01/09 03:23:24;;;;;;;51.48;28.52;;;;;;;2.82;98.71;99334.01;1813594;78;27525;-51
2023/01/09 03:25:50;;;;;;;50.10;27.13;;;;;;;2.82;98.78;99324.11;1829750;77;25423;-50
2023/01/09 03:28:27;;;;;;;51.85;27.95;;;;;;;2.82;98.72;99329.45;1813645;78;25538;-50
2023/01/09 03:30:54;;;;;;;51.42;28.30;;;;;;;2.83;98.76;99325.72;1829793;78;25480;-49
2023/01/09 03:33:21;;;;;;;48.87;27.00;;;;;;;2.85;98.71;99324.10;1829845;78;25373;-52
2023/01/09 03:35:47;;;;;;;50.03;27.80;;;;;;;2.85;98.72;99321.44;1813564;78;27839;-52
2023/01/09 03:38:14;;;;;;;49.40;28.15;;;;;;;2.86;98.75;99315.81;1829688;78;32123;-49
2023/01/09 03:40:42;;;;;;;51.45;28.60;;;;;;;2.86;98.72;99309.13;1825060;77;25501;-50
2023/01/09 03:43:09;;;;;;;50.40;26.87;;;;;;;2.85;98.63;99307.53;1823771;78;25618;-51
2023/01/09 03:45:36;;;;;;;48.48;26.10;;;;;;;2.86;98.62;99309.13;1823730;78;25576;-50
2023/01/09 03:48:04;;;;;;;44.38;26.35;;;;;;;2.88;98.65;99306.16;1803103;78;27369;-50
2023/01/09 03:50:30;;;;;;;49.67;25.97;;;;;;;2.87;98.70;99295.23;1823622;78;25371;-50
2023/01/09 03:52:57;;;;;;;48.33;25.57;;;;;;;2.88;98.65;99295.47;1823685;78;25590;-48
2023/01/09 03:55:23;;;;;;;47.75;25.95;;;;;;;2.88;98.69;99294.14;1823612;78;25593;-50
2023/01/09 03:57:49;;;;;;;49.63;26.27;;;;;;;2.90;98.71;99288.78;1803116;78;32390;-50
2023/01/09 04:00:18;;;;;;;46.98;26.02;;;;;;;2.91;98.67;99281.56;1823664;78;27671;-51
2023/01/09 04:02:45;;;;;;;46.30;25.48;;;;;;;2.91;98.60;99266.87;1803089;78;25620;-51
2023/01/09 04:05:11;;;;;;;44.13;24.98;;;;;;;2.90;98.54;99263.95;1823680;78;25414;-51
2023/01/09 04:07:38;;;;;;;46.35;26.17;;;;;;;2.89;98.56;99263.69;1823612;78;25604;-48
2023/01/09 04:10:07;;;;;;;54.98;26.95;;;;;;;2.89;98.57;99261.80;1823644;78;25407;-49
2023/01/09 04:12:34;;;;;;;44.50;25.05;;;;;;;2.89;98.62;99255.67;1820400;78;27578;-50
2023/01/09 04:15:00;;;;;;;48.50;26.80;;;;;;;2.89;98.64;99261.80;1823573;78;25756;-49
2023/01/09 04:17:26;;;;;;;49.20;27.07;;;;;;;2.88;98.61;99265.58;1823696;78;25363;-48
2023/01/09 04:19:52;;;;;;;51.02;27.58;;;;;;;2.86;98.59;99265.06;1823591;78;34777;-48
2023/01/09 04:22:18;;;;;;;47.67;27.55;;;;;;;2.87;98.69;99269.86;1823693;77;32496;-48
2023/01/09 04:24:44;;;;;;;47.38;25.50;;;;;;;2.87;98.71;99263.18;1823660;78;28209;-48
2023/01/09 04:27:11;;;;;;;45.08;25.70;;;;;;;2.87;98.74;99273.87;1823543;78;25578;-51
2023/01/09 04:29:38;;;;;;;46.10;26.40;;;;;;;2.87;98.78;99274.66;1823685;78;25599;-51
2023/01/09 04:32:05;;;;;;;49.83;25.80;;;;;;;2.87;98.83;99278.66;1823581;78;25499;-50
2023/01/09 04:34:31;;;;;;;44.03;25.15;;;;;;;2.89;98.92;99279.17;1823676;78;25553;-49
2023/01/09 04:36:58;;;;;;;44.05;25.40;;;;;;;2.89;98.92;99275.70;1823654;78;27401;-51
2023/01/09 04:39:24;;;;;;;46.35;25.00;;;;;;;2.90;98.94;99272.76;1803605;78;25759;-49
2023/01/09 04:41:50;;;;;;;46.18;24.95;;;;;;;2.90;98.99;99263.41;1813576;78;25574;-49
2023/01/09 04:44:25;;;;;;;44.30;24.80;;;;;;;2.90;99.05;99270.63;1829744;78;25608;-51
2023/01/09 04:46:50;;;;;;;53.45;26.93;;;;;;;2.91;99.13;99262.34;1829725;77;25542;-50
2023/01/09 04:49:17;;;;;;;42.67;23.90;;;;;;;2.92;99.28;99262.58;1829775;78;27498;-50
2023/01/09 04:51:44;;;;;;;46.95;26.37;;;;;;;2.92;99.38;99260.45;1829632;77;25616;-49
2023/01/09 04:54:10;;;;;;;47.53;25.27;;;;;;;2.92;99.38;99251.89;1829785;77;25621;-52
2023/01/09 04:56:38;;;;;;;48.98;25.08;;;;;;;2.94;99.46;99264.97;1813493;78;25625;-49
2023/01/09 04:59:07;;;;;;;47.20;25.88;;;;;;;2.95;99.55;99254.55;1829701;78;25585;-51
2023/01/09 05:01:34;;;;;;;44.13;25.40;;;;;;;2.97;99.64;99253.72;1830013;78;27560;-52
2023/01/09 05:04:01;;;;;;;45.28;24.27;;;;;;;2.98;99.71;99248.65;1829683;78;27339;-50
2023/01/09 05:06:27;;;;;;;45.25;25.02;;;;;;;3.01;99.86;99247.27;1829617;78;25532;-49
2023/01/09 05:08:55;;;;;;;42.55;23.47;;;;;;;3.00;99.83;99239.80;1829691;77;25493;-49
2023/01/09 05:11:24;;;;;;;45.25;24.82;;;;;;;3.03;99.84;99237.91;1829778;77;25557;-49
2023/01/09 05:13:52;;;;;;;45.25;25.30;;;;;;;3.05;99.91;99233.59;1830017;77;27469;-49
2023/01/09 05:16:20;;;;;;;44.60;22.87;;;;;;;3.06;99.88;99234.64;1829611;78;25534;-51
2023/01/09 05:18:47;;;;;;;37.42;20.20;;;;;;;3.05;99.94;99223.72;1829686;78;25624;-49
2023/01/09 05:21:14;;;;;;;44.93;22.17;;;;;;;3.05;100.00;99225.05;1829687;77;25607;-50
2023/01/09 05:23:40;;;;;;;45.50;21.95;;;;;;;3.05;100.00;99221.05;1829751;77;25391;-50
2023/01/09 05:26:06;;;;;;;35.28;19.32;;;;;;;3.06;100.00;99219.95;1829717;77;27333;-50
2023/01/09 05:28:33;;;;;;;37.67;19.95;;;;;;;3.08;100.00;99223.67;1829592;77;25734;-49
2023/01/09 05:31:00;;;;;;;40.25;18.73;;;;;;;3.06;100.00;99221.83;1829695;78;25621;-48
2023/01/09 05:33:26;;;;;;;39.67;19.92;;;;;;;3.08;100.00;99219.66;1829647;77;25540;-51
2023/01/09 05:35:52;;;;;;;43.65;20.15;;;;;;;3.07;100.00;99222.89;1829744;77;25590;-49
2023/01/09 05:38:18;;;;;;;38.05;18.75;;;;;;;3.08;100.00;99214.32;1829703;78;27545;-48
2023/01/09 05:40:44;;;;;;;39.35;20.68;;;;;;;3.08;100.00;99214.32;1826402;77;25558;-53
2023/01/09 05:43:11;;;;;;;42.23;21.62;;;;;;;3.10;100.00;99208.15;1823728;78;25517;-50
2023/01/09 05:45:38;;;;;;;46.08;23.20;;;;;;;3.09;100.00;99202.02;1803016;78;26807;-50
2023/01/09 05:48:05;;;;;;;43.08;20.35;;;;;;;3.10;100.00;99203.63;1803078;78;25410;-49
2023/01/09 05:50:32;;;;;;;39.88;19.05;;;;;;;3.10;100.00;99195.60;1823614;78;27512;-50
2023/01/09 05:52:58;;;;;;;42.00;20.95;;;;;;;3.11;100.00;99191.05;1823528;78;25528;-49
2023/01/09 05:55:25;;;;;;;41.48;19.60;;;;;;;3.13;100.00;99191.55;1823579;78;25585;-49
2023/01/09 05:57:51;;;;;;;44.65;22.07;;;;;;;3.14;100.00;99189.93;1823528;78;25476;-50
2023/01/09 06:00:19;;;;;;;36.28;18.67;;;;;;;3.15;100.00;99190.72;1823655;78;25419;-49
2023/01/09 06:02:45;;;;;;;49.88;21.42;;;;;;;3.16;100.00;99187.76;1803641;78;28009;-51
2023/01/09 06:05:11;;;;;;;41.10;20.00;;;;;;;3.18;100.00;99188.30;1823515;78;25548;-50
2023/01/09 06:07:40;;;;;;;40.90;19.85;;;;;;;3.18;100.00;99188.30;1823604;78;25402;-49
2023/01/09 06:10:11;;;;;;;24.47;12.43;;;;;;;3.20;100.00;99191.20;1823724;78;25666;-49
2023/01/09 06:12:39;;;;;;;42.50;21.57;;;;;;;3.21;100.00;99193.59;1803008;78;25430;-50
2023/01/09 06:15:08;;;;;;;36.85;20.25;;;;;;;3.21;100.00;99190.12;1823583;78;27470;-49
2023/01/09 06:17:34;;;;;;;25.37;13.83;;;;;;;3.23;100.00;99199.98;1823777;78;25737;-49
2023/01/09 06:20:00;;;;;;;39.05;19.35;;;;;;;3.23;100.00;99185.29;1823568;78;25405;-49
2023/01/09 06:22:26;;;;;;;39.53;18.15;;;;;;;3.23;100.00;99186.63;1823574;78;25552;-49
2023/01/09 06:24:52;;;;;;;35.28;18.55;;;;;;;3.23;100.00;99194.09;1823613;78;25532;-50
2023/01/09 06:27:18;;;;;;;37.03;19.35;;;;;;;3.22;100.00;99187.17;1803027;78;27285;-49
2023/01/09 06:29:45;;;;;;;35.00;17.75;;;;;;;3.23;100.00;99187.41;1823457;78;25593;-50
2023/01/09 06:32:11;;;;;;;32.40;17.62;;;;;;;3.23;100.00;99186.63;1803088;78;25673;-49
2023/01/09 06:34:38;;;;;;;37.33;19.07;;;;;;;3.20;100.00;99186.64;1802979;78;34854;-50
2023/01/09 06:37:04;;;;;;;47.73;34.63;;;;;;;3.19;100.00;99193.09;1802956;78;25620;-49
2023/01/09 06:39:30;;;;;;;51.85;39.67;;;;;;;3.16;100.00;99188.31;1823526;78;27409;-52
2023/01/09 06:41:57;;;;;;;62.25;48.00;;;;;;;3.14;100.00;99187.25;1828752;77;25368;-52
2023/01/09 06:44:23;;;;;;;47.48;31.20;;;;;;;3.12;100.00;99192.09;1829784;77;25532;-49
2023/01/09 06:46:49;;;;;;;33.92;18.10;;;;;;;3.09;100.00;99195.34;1829812;78;25570;-49
2023/01/09 06:49:22;;;;;;;39.85;18.98;;;;;;;3.08;100.00;99204.45;1829877;77;32248;-52
2023/01/09 06:51:45;;;;;;;34.85;18.48;;;;;;;3.05;100.00;99201.01;1829432;77;27797;-50
2023/01/09 06:54:12;;;;;;;40.28;21.12;;;;;;;3.04;100.00;99198.62;1829686;78;25525;-49
2023/01/09 06:56:38;;;;;;;36.45;18.25;;;;;;;3.03;100.00;99188.48;1829841;77;25557;-50
2023/01/09 06:59:04;;;;;;;40.75;23.55;;;;;;;3.01;100.00;99182.60;1829726;77;25599;-49
2023/01/09 07:01:30;;;;;;;33.53;19.48;;;;;;;3.02;100.00;99175.41;1829871;78;25539;-50
2023/01/09 07:03:56;;;;;;;39.20;22.22;;;;;;;3.02;100.00;99178.08;1829806;78;27481;-49
2023/01/09 07:06:23;;;;;;;37.45;20.25;;;;;;;3.00;100.00;99177.02;1829701;78;25748;-49
2023/01/09 07:08:49;;;;;;;46.92;25.10;;;;;;;2.99;100.00;99170.86;1829804;78;25521;-48
2023/01/09 07:11:15;;;;;;;98.15;89.60;;;;;;;3.00;100.00;99171.68;1813630;78;26094;-51
2023/01/09 07:13:41;;;;;;;41.02;18.67;;;;;;;2.98;100.00;99169.84;1829807;78;25548;-48
2023/01/09 07:16:08;;;;;;;35.03;17.77;;;;;;;3.01;100.00;99153.22;1829967;77;27734;-49
2023/01/09 07:18:35;;;;;;;35.23;17.52;;;;;;;3.02;100.00;99164.72;1829724;78;25356;-48
2023/01/09 07:21:05;;;;;;;37.20;20.82;;;;;;;3.03;100.00;99164.44;1829770;78;25355;-50
2023/01/09 07:23:32;;;;;;;;;;;;;;;3.04;100.00;99163.89;1832475;78;25496;-49
2023/01/09 07:26:00;;;;;;;35.78;17.57;;;;;;;3.07;100.00;99160.65;1829841;78;25446;-50
2023/01/09 07:28:27;;;;;;;36.33;19.45;;;;;;;3.07;100.00;99166.78;1829813;78;27459;-49
2023/01/09 07:30:53;;;;;;;40.70;19.00;;;;;;;3.11;100.00;99165.11;1829720;78;25750;-50
2023/01/09 07:33:20;;;;;;;41.90;25.65;;;;;;;3.12;100.00;99168.05;1829809;78;25534;-48
2023/01/09 07:35:46;;;;;;;35.00;19.57;;;;;;;3.14;100.00;99173.89;1829808;77;25531;-49
2023/01/09 07:38:12;;;;;;;35.38;21.37;;;;;;;3.15;100.00;99168.82;1829853;77;25495;-49
2023/01/09 07:40:39;;;;;;;39.18;19.87;;;;;;;3.18;100.00;99172.78;1829676;78;27486;-49
2023/01/09 07:43:05;;;;;;;36.23;18.10;;;;;;;3.18;100.00;99165.58;1829490;77;25459;-49
2023/01/09 07:45:33;;;;;;;38.30;19.40;;;;;;;3.23;100.00;99159.91;1829134;78;25705;-51
2023/01/09 07:47:59;;;;;;;35.10;18.92;;;;;;;3.25;100.00;99158.55;1829556;77;25512;-50
2023/01/09 07:50:25;;;;;;;36.03;17.70;;;;;;;3.27;100.00;99155.03;1830017;77;25573;-50
2023/01/09 07:52:51;;;;;;;36.20;17.85;;;;;;;3.31;100.00;99163.27;1829786;77;29670;-52
2023/01/09 07:55:18;;;;;;;35.75;18.48;;;;;;;3.32;100.00;99163.50;1829688;78;27329;-49
2023/01/09 07:57:50;;;;;;;35.00;17.02;;;;;;;3.34;100.00;99162.16;1829774;78;25576;-49
2023/01/09 08:00:19;;;;;;;33.98;18.00;;;;;;;3.36;100.00;99154.63;1829770;78;26502;-52
2023/01/09 08:02:52;;;;;;;38.45;20.62;;;;;;;3.40;100.00;99147.37;1829823;78;25595;-50
2023/01/09 08:05:19;;;;;;;31.73;17.92;;;;;;;3.43;100.00;99144.92;1829863;77;27442;-48
2023/01/09 08:07:46;;;;;;;35.80;19.27;;;;;;;3.46;100.00;99144.34;1829699;78;25439;-49
2023/01/09 08:10:12;;;;;;;32.05;16.12;;;;;;;3.49;100.00;99138.95;1829747;77;25416;-48
2023/01/09 08:12:43;;;;;;;32.63;17.73;;;;;;;3.56;100.00;99143.41;1829707;78;25584;-48
2023/01/09 08:15:11;;;;;;;34.78;18.25;;;;;;;3.62;100.00;99142.78;1829867;77;25461;-48
2023/01/09 08:17:41;;;;;;;36.20;18.65;;;;;;;3.70;100.00;99137.56;1829767;77;28092;-48
2023/01/09 08:20:11;;;;;;;31.77;18.05;;;;;;;3.81;100.00;99143.54;1829627;78;25521;-48
2023/01/09 08:22:41;;;;;;;26.55;15.78;;;;;;;3.92;100.00;99146.31;1829768;78;25382;-49
2023/01/09 08:25:10;;;;;;;32.38;16.95;;;;;;;3.98;100.00;99154.26;1813553;78;25554;-49
2023/01/09 08:27:36;;;;;;;32.25;20.27;;;;;;;4.05;100.00;99145.30;1829796;78;25432;-48
2023/01/09 08:30:05;;;;;;;94.17;85.20;;;;;;;4.09;99.70;99147.11;1829754;78;27454;-48
2023/01/09 08:32:31;;;;;;;97.08;88.97;;;;;;;4.17;99.50;99142.16;1827354;78;25544;-49
2023/01/09 08:34:57;;;;;;;103.95;95.05;;;;;;;4.20;99.25;99143.70;1829715;77;25578;-49
2023/01/09 08:37:24;;;;;;;95.25;87.33;;;;;;;4.27;99.60;99144.66;1829684;78;25478;-49
2023/01/09 08:39:52;;;;;;;100.85;91.95;;;;;;;4.29;98.76;99132.58;1813574;78;25468;-49
2023/01/09 08:47:55;;;;;;;35.20;17.87;;;;;;;4.45;99.02;99133.64;1823957;78;25588;-49
2023/01/09 08:50:21;;;;;;;28.42;16.80;;;;;;;4.51;98.23;99126.30;1823619;78;25578;-49
2023/01/09 08:52:47;;;;;;;31.62;17.45;;;;;;;4.52;97.96;99125.22;1823654;78;25533;-49
2023/01/09 08:55:14;;;;;;;29.90;17.87;;;;;;;4.55;98.04;99110.69;1823663;78;27455;-48
2023/01/09 08:57:51;;;;;;;94.80;86.75;;;;;;;4.59;97.80;99123.72;1823570;78;25587;-48
2023/01/09 09:00:22;;;;;;;45.03;40.28;;;;;;;4.60;97.47;99130.67;1823411;78;25515;-49
2023/01/09 09:02:55;;;;;;;33.02;17.12;;;;;;;4.65;97.13;99129.79;1823593;78;25671;-49
2023/01/09 09:05:24;;;;;;;34.43;17.20;;;;;;;4.63;96.78;99128.75;1823671;78;25557;-49
2023/01/09 09:07:54;;;;;;;32.35;17.35;;;;;;;4.61;96.51;99137.59;1823801;78;31277;-51
2023/01/09 09:10:25;;;;;;;34.43;18.10;;;;;;;4.58;95.74;99141.42;1823565;78;25622;-49
2023/01/09 09:12:55;;;;;;;28.90;15.38;;;;;;;4.54;96.18;99129.17;1803058;78;25480;-49
2023/01/09 09:15:25;;;;;;;29.07;17.60;;;;;;;4.55;96.41;99122.73;1823644;78;25514;-49
2023/01/09 09:17:59;;;;;;;32.03;18.55;;;;;;;4.54;96.26;99121.14;1803175;78;25402;-48
2023/01/09 09:20:30;;;;;;;97.60;89.22;;;;;;;4.53;96.21;99122.77;1803097;78;27513;-49
2023/01/09 09:22:58;;;;;;;28.23;15.65;;;;;;;4.48;95.92;99111.08;1823566;78;25798;-49
2023/01/09 09:25:27;;;;;;;30.25;16.48;;;;;;;4.46;95.71;99112.45;1823593;78;25642;-48
2023/01/09 09:27:55;;;;;;;40.45;33.70;;;;;;;4.46;95.88;99113.79;1823593;78;25475;-49
2023/01/09 09:30:24;;;;;;;97.02;88.65;;;;;;;4.44;96.16;99101.25;1823670;78;25597;-49
2023/01/09 09:32:51;;;;;;;97.50;89.32;;;;;;;4.47;96.02;99092.08;1823791;78;27174;-49
2023/01/09 09:35:19;;;;;;;51.80;46.80;;;;;;;4.46;95.92;99086.48;1823572;78;25717;-49
2023/01/09 09:38:00;;;;;;;40.48;24.50;;;;;;;4.50;96.36;99075.97;1823733;78;25554;-51
2023/01/09 09:40:47;;;;;;;;;;;;;;;4.54;96.14;99072.94;1825349;78;25456;-51
2023/01/09 09:46:24;;;;;;;86.32;78.85;;;;;;;4.51;95.51;99098.97;1782060;80;27452;-47
2023/01/09 09:49:02;;;;;;;96.90;88.92;;;;;;;4.51;95.62;99087.47;1782669;80;25470;-48
2023/01/09 09:51:39;;;;;;;96.00;88.00;;;;;;;4.51;95.47;99088.81;1782042;80;25499;-47
2023/01/09 09:54:19;;;;;;;95.55;87.45;;;;;;;4.50;95.63;99094.72;1782460;80;26294;-51
2023/01/09 09:56:52;;;;;;;93.52;85.35;;;;;;;4.47;95.70;99078.69;1783884;80;25629;-49
2023/01/09 09:59:28;;;;;;;93.42;85.83;;;;;;;4.55;96.37;99084.45;1783828;80;27573;-49
2023/01/09 10:02:22;;;;;;;95.92;87.85;;;;;;;4.59;96.33;99080.08;1783816;80;25625;-50
2023/01/09 10:05:00;;;;;;;94.42;86.70;;;;;;;4.63;96.38;99069.00;1783637;80;25451;-48
2023/01/09 10:07:32;;;;;;;103.27;94.47;;;;;;;4.61;96.02;99070.64;1783721;80;25513;-49
2023/01/09 10:10:04;;;;;;;97.57;89.72;;;;;;;4.60;95.60;99063.72;1783808;80;25616;-49
2023/01/09 10:12:36;;;;;;;96.65;88.65;;;;;;;4.61;95.90;99069.86;1783768;80;27534;-48
2023/01/09 10:15:15;;;;;;;96.08;88.30;;;;;;;4.60;96.05;99063.72;1757453;80;25676;-49
2023/01/09 10:18:08;;;;;;;96.15;88.22;;;;;;;4.62;95.68;99059.41;1752543;80;25452;-47
2023/01/09 10:20:42;;;;;;;96.40;88.20;;;;;;;4.61;95.78;99067.18;1783938;80;25526;-48
2023/01/09 10:23:45;;;;;;;96.80;88.78;;;;;;;4.60;96.03;99063.72;1809119;78;25582;-49
2023/01/09 10:26:36;;;;;;;93.60;86.10;;;;;;;4.61;96.20;99057.80;1783496;80;29647;-48
2023/01/09 10:29:28;;;;;;;95.05;87.20;;;;;;;4.62;96.30;99064.77;1783793;80;27381;-49
2023/01/09 10:32:26;;;;;;;96.12;87.85;;;;;;;4.62;96.19;99053.49;1755252;81;25623;-48
2023/01/09 10:35:26;;;;;;;96.40;88.07;;;;;;;4.59;96.15;99052.74;1755675;81;26118;-49
2023/01/09 10:37:56;;;;;;;95.72;87.82;;;;;;;4.62;96.24;99058.06;1750193;81;25520;-48
2023/01/09 10:40:28;;;;;;;97.25;89.37;;;;;;;4.61;96.41;99061.82;1755546;81;27825;-47
2023/01/09 10:43:03;;;;;;;96.90;88.67;;;;;;;4.60;96.43;99065.61;1735770;81;25454;-49
2023/01/09 10:45:49;;;;;;;96.50;88.52;;;;;;;4.58;96.51;99052.52;1729616;83;25599;-48
2023/01/09 10:48:35;;;;;;;93.95;86.17;;;;;;;4.56;96.75;99045.86;1729590;83;25624;-48
2023/01/09 10:51:20;;;;;;;96.02;87.80;;;;;;;4.54;96.99;99046.16;1720688;83;25638;-47
2023/01/09 10:53:51;;;;;;;95.80;87.35;;;;;;;4.54;97.21;99040.02;1729625;83;27521;-47
2023/01/09 10:56:26;;;;;;;96.25;88.25;;;;;;;4.53;97.40;99043.77;1729486;83;27301;-48
2023/01/09 10:58:55;;;;;;;97.30;89.28;;;;;;;4.51;97.65;99032.02;1706188;83;25652;-46
2023/01/09 11:01:30;;;;;;;70.78;64.55;;;;;;;4.53;97.98;99031.72;1729775;83;27082;-47
2023/01/09 11:04:00;;;;;;;98.75;90.80;;;;;;;4.53;98.21;99028.52;1746723;82;25438;-49
2023/01/09 11:06:48;;;;;;;97.30;88.85;;;;;;;4.53;98.42;99029.05;1747515;82;27527;-49
2023/01/09 11:09:15;;;;;;;99.37;90.90;;;;;;;4.53;98.78;99025.84;1775362;80;25681;-50
2023/01/09 11:11:44;;;;;;;97.65;89.52;;;;;;;4.51;98.90;99026.66;1794428;80;25583;-45
2023/01/09 11:14:30;;;;;;;101.02;92.50;;;;;;;4.52;99.12;99024.80;1794338;80;25414;-48
2023/01/09 11:17:00;;;;;;;98.52;90.15;;;;;;;4.52;99.43;99018.10;1753575;80;25790;-45
2023/01/09 11:19:31;;;;;;;101.10;92.27;;;;;;;4.49;99.64;99006.91;1794367;80;27527;-49
2023/01/09 11:22:18;;;;;;;99.13;90.90;;;;;;;4.50;99.81;99006.34;1794291;80;25614;-47
2023/01/09 11:24:51;;;;;;;99.10;90.83;;;;;;;4.48;100.00;99003.97;1794350;80;25358;-46
2023/01/09 11:27:24;;;;;;;100.35;91.57;;;;;;;4.51;100.00;99008.47;1791034;80;25700;-47
2023/01/09 11:30:19;;;;;;;101.22;92.90;;;;;;;4.48;100.00;98995.94;1794423;80;25526;-48
2023/01/09 11:32:48;;;;;;;101.35;92.50;;;;;;;4.51;100.00;98999.88;1794366;80;26943;-47
2023/01/09 11:35:26;;;;;;;100.82;91.90;;;;;;;4.54;100.00;98995.27;1794434;80;25586;-48
2023/01/09 11:38:15;;;;;;;101.47;92.35;;;;;;;4.55;100.00;98985.38;1794379;80;25505;-47
2023/01/09 11:40:54;;;;;;;;;;;;;;;4.56;100.00;98982.92;1797011;80;26570;-49
2023/01/09 11:43:36;;;;;;;96.53;88.42;;;;;;;4.56;100.00;98977.02;1818338;77;25376;-48
2023/01/09 11:46:08;;;;;;;100.62;92.22;;;;;;;4.55;100.00;98967.41;1823859;78;27474;-45
2023/01/09 11:48:55;;;;;;;102.00;93.27;;;;;;;4.57;100.00;98975.93;1823757;78;25664;-48
2023/01/09 11:51:28;;;;;;;40.17;22.60;;;;;;;4.57;100.00;98973.25;1823757;78;25373;-48
2023/01/09 11:54:17;;;;;;;47.00;35.15;;;;;;;4.58;100.00;98972.17;1822369;78;26163;-48
2023/01/09 11:56:48;;;;;;;35.92;23.55;;;;;;;4.58;100.00;98970.83;1823867;78;25534;-48